Time;durP1;ratioP1;P1;durP2;ratioP2;P2;SDS_P1;SDS_P2;PMS_P1;PMS_P2;Temp;Humidity;BMP_temperature;BMP_pressure;BME280_temperature;BME280_humidity;BME280_pressure;Samples;Min_cycle;Max_cycle;Signal;HPM_P1;HPM_P2
2022/04/26 03:36:39;;;;;;;5.55;3.20;;;8.10;99.90;;;;;;5122708;28;20077;-86
2022/04/26 03:39:06;;;;;;;6.07;3.15;;;8.10;99.90;;;;;;5105726;28;20028;-85
2022/04/26 03:41:33;;;;;;;6.78;2.80;;;8.10;99.90;;;;;;5103259;28;20012;-87
2022/04/26 03:43:59;;;;;;;4.63;2.88;;;8.10;99.90;;;;;;5104663;28;20034;-86
2022/04/26 03:46:28;;;;;;;4.32;2.80;;;8.10;99.90;;;;;;5103378;28;20027;-86
2022/04/26 03:48:54;;;;;;;4.93;2.88;;;8.10;99.90;;;;;;5097129;28;20019;-84
2022/04/26 03:51:19;;;;;;;5.05;2.97;;;8.20;99.90;;;;;;5096798;28;20038;-85
2022/04/26 03:53:47;;;;;;;5.20;3.03;;;8.20;99.90;;;;;;5100336;28;20026;-85
2022/04/26 03:56:13;;;;;;;5.32;2.65;;;8.20;99.90;;;;;;5099381;28;20110;-84
2022/04/26 03:58:38;;;;;;;5.10;3.10;;;8.20;99.90;;;;;;5117785;28;20074;-86
2022/04/26 04:01:04;;;;;;;4.93;3.03;;;8.20;99.90;;;;;;5099534;28;20027;-84
2022/04/26 04:03:30;;;;;;;5.30;3.75;;;8.20;99.90;;;;;;5117738;28;20027;-85
2022/04/26 04:05:56;;;;;;;6.53;3.40;;;8.20;99.90;;;;;;5099094;28;20030;-85
2022/04/26 04:08:22;;;;;;;6.07;3.40;;;8.20;99.90;;;;;;5098944;28;20385;-84
2022/04/26 04:10:47;;;;;;;6.05;3.88;;;8.20;99.90;;;;;;5099716;28;20036;-86
2022/04/26 04:13:13;;;;;;;6.93;3.88;;;8.20;99.90;;;;;;5099394;28;20050;-85
2022/04/26 04:15:39;;;;;;;6.63;3.72;;;8.20;99.90;;;;;;5095207;28;20051;-84
2022/04/26 04:19:17;;;;;;;7.95;4.43;;;8.20;99.90;;;;;;5098078;28;20020;-86
2022/04/26 04:20:52;;;;;;;10.25;5.00;;;8.20;99.90;;;;;;5116235;28;20024;-85
2022/04/26 04:23:17;;;;;;;8.18;4.65;;;8.20;99.90;;;;;;5097934;28;20027;-87
2022/04/26 04:25:43;;;;;;;7.93;4.80;;;8.20;99.90;;;;;;5098390;28;20024;-86
2022/04/26 04:28:08;;;;;;;10.65;4.40;;;8.20;99.90;;;;;;5098858;28;20031;-85
2022/04/26 04:30:37;;;;;;;9.02;4.38;;;8.20;99.90;;;;;;5099710;28;20039;-85
2022/04/26 04:33:06;;;;;;;7.30;3.55;;;8.10;99.90;;;;;;5101447;28;20039;-84
2022/04/26 04:35:31;;;;;;;8.27;4.22;;;8.00;99.90;;;;;;5116890;28;20027;-84
2022/04/26 04:37:57;;;;;;;7.38;4.88;;;8.00;99.90;;;;;;5094383;28;20080;-84
2022/04/26 04:40:22;;;;;;;9.13;4.53;;;8.00;99.90;;;;;;5094178;28;20027;-83
2022/04/26 04:42:48;;;;;;;8.80;5.05;;;8.00;99.90;;;;;;5093464;28;20024;-82
2022/04/26 04:45:14;;;;;;;8.35;5.20;;;8.00;99.90;;;;;;5095012;28;20032;-84
2022/04/26 04:47:39;;;;;;;6.65;4.35;;;8.00;99.90;;;;;;5096036;28;20038;-85
2022/04/26 04:50:05;;;;;;;7.00;4.85;;;8.00;99.90;;;;;;5095432;28;20031;-85
2022/04/26 04:52:31;;;;;;;7.40;4.43;;;8.00;99.90;;;;;;5114199;28;20047;-84
2022/04/26 04:54:57;;;;;;;9.88;5.25;;;8.00;99.90;;;;;;5113556;28;20469;-84
2022/04/26 04:57:22;;;;;;;8.77;5.53;;;8.10;99.90;;;;;;5113819;28;20028;-81
2022/04/26 04:59:48;;;;;;;6.00;4.47;;;8.10;99.90;;;;;;5095904;28;20106;-85
2022/04/26 05:02:14;;;;;;;9.13;4.90;;;8.10;99.90;;;;;;5113160;28;20019;-87
2022/04/26 05:04:42;;;;;;;8.02;5.22;;;8.20;99.90;;;;;;5113781;28;20068;-87
2022/04/26 05:07:08;;;;;;;10.35;5.35;;;8.20;99.90;;;;;;5094681;28;20122;-87
2022/04/26 05:09:37;;;;;;;7.85;5.20;;;8.20;99.90;;;;;;5094637;28;20132;-87
2022/04/26 05:12:04;;;;;;;12.93;6.57;;;8.30;99.90;;;;;;5113124;28;20015;-85
2022/04/26 05:14:29;;;;;;;10.82;5.63;;;8.30;99.90;;;;;;5112884;28;20548;-85
2022/04/26 05:16:55;;;;;;;8.63;6.20;;;8.30;99.90;;;;;;5099722;28;20027;-86
2022/04/26 05:19:21;;;;;;;11.60;6.63;;;8.40;99.90;;;;;;5073928;28;20028;-85
2022/04/26 05:21:46;;;;;;;10.07;7.00;;;8.40;99.90;;;;;;5074709;28;20024;-84
2022/04/26 05:26:56;;;;;;;9.90;6.70;;;8.40;99.90;;;;;;5096526;28;20116;-87
2022/04/26 05:29:22;;;;;;;9.77;7.03;;;8.50;99.90;;;;;;5091696;28;20089;-87
2022/04/26 05:31:47;;;;;;;8.95;6.55;;;8.50;99.90;;;;;;5080592;28;20024;-85
2022/04/26 05:34:13;;;;;;;8.80;6.15;;;8.50;99.90;;;;;;5097580;28;20023;-86
2022/04/26 05:36:38;;;;;;;8.80;5.93;;;8.60;99.90;;;;;;5115410;28;20349;-84
2022/04/26 05:39:04;;;;;;;10.90;6.78;;;8.60;99.90;;;;;;5115725;28;20036;-85
2022/04/26 05:41:30;;;;;;;10.32;7.03;;;8.70;99.90;;;;;;5080303;28;20020;-86
2022/04/26 05:43:55;;;;;;;10.98;7.18;;;8.70;99.90;;;;;;5080442;28;20076;-85
2022/04/26 05:46:21;;;;;;;12.20;8.38;;;8.70;99.90;;;;;;5096824;28;20026;-85
2022/04/26 05:48:46;;;;;;;10.52;8.05;;;8.80;99.90;;;;;;5096866;28;20020;-85
2022/04/26 05:51:12;;;;;;;11.35;8.30;;;8.80;99.90;;;;;;5082532;28;20035;-85
2022/04/26 05:53:38;;;;;;;10.65;7.40;;;8.80;99.90;;;;;;5097878;28;20020;-85
2022/04/26 05:56:06;;;;;;;12.52;8.30;;;8.90;99.90;;;;;;5091684;28;20016;-85
2022/04/26 05:58:32;;;;;;;12.35;8.23;;;8.90;99.90;;;;;;5084333;28;20020;-85
2022/04/26 06:00:57;;;;;;;12.57;8.13;;;9.00;99.90;;;;;;5084483;28;20484;-86
2022/04/26 06:03:23;;;;;;;13.23;8.35;;;9.00;99.90;;;;;;5076431;28;20108;-87
2022/04/26 06:05:49;;;;;;;12.15;7.55;;;9.00;99.90;;;;;;5096436;28;20016;-85
2022/04/26 06:08:15;;;;;;;12.57;8.23;;;9.00;99.90;;;;;;5096249;28;20380;-86
2022/04/26 06:10:41;;;;;;;11.27;7.75;;;9.10;99.90;;;;;;5096197;28;20032;-87
2022/04/26 06:13:08;;;;;;;10.93;8.10;;;9.10;99.90;;;;;;5097042;28;20023;-86
2022/04/26 06:15:34;;;;;;;12.10;8.20;;;9.20;99.90;;;;;;5078996;28;20024;-85
2022/04/26 06:17:59;;;;;;;13.25;7.35;;;9.20;99.90;;;;;;5092600;28;20390;-85
2022/04/26 06:20:25;;;;;;;11.20;7.47;;;9.30;99.90;;;;;;5101290;28;20024;-86
2022/04/26 06:22:51;;;;;;;12.48;9.48;;;9.40;99.90;;;;;;5095405;28;20024;-85
2022/04/26 06:25:17;;;;;;;10.50;6.93;;;9.60;99.90;;;;;;5093219;28;20083;-85
2022/04/26 06:27:43;;;;;;;13.10;8.25;;;9.70;99.90;;;;;;5096292;28;20346;-86
2022/04/26 06:30:09;;;;;;;12.05;7.20;;;9.90;99.90;;;;;;5094171;28;20070;-86
2022/04/26 06:32:35;;;;;;;12.98;7.47;;;10.00;99.90;;;;;;5106891;28;20051;-85
2022/04/26 06:35:01;;;;;;;12.15;6.90;;;10.10;99.90;;;;;;5101809;28;20020;-85
2022/04/26 06:37:26;;;;;;;11.80;7.22;;;10.10;99.90;;;;;;5092302;28;20492;-86
2022/04/26 06:39:53;;;;;;;11.20;7.22;;;10.20;99.90;;;;;;5111036;28;20039;-86
2022/04/26 06:42:19;;;;;;;15.55;7.80;;;10.20;99.90;;;;;;5104571;28;20064;-85
2022/04/26 06:44:44;;;;;;;10.95;6.93;;;10.20;99.90;;;;;;5104405;28;20443;-84
2022/04/26 06:47:10;;;;;;;11.90;7.05;;;10.30;99.90;;;;;;5076882;28;20040;-85
2022/04/26 06:49:36;;;;;;;10.35;6.00;;;10.40;99.90;;;;;;5113360;28;20035;-84
2022/04/26 06:52:01;;;;;;;13.45;6.78;;;10.40;99.90;;;;;;5076799;28;20072;-85
2022/04/26 06:54:27;;;;;;;12.30;6.80;;;10.40;99.90;;;;;;5086709;28;20076;-86
2022/04/26 06:56:52;;;;;;;10.80;6.57;;;10.40;99.90;;;;;;5096364;28;20473;-85
2022/04/26 06:59:18;;;;;;;11.45;6.25;;;10.30;99.90;;;;;;5098219;28;20021;-85
2022/04/26 07:01:45;;;;;;;12.82;6.18;;;10.30;99.90;;;;;;5109891;28;20028;-84
2022/04/26 07:04:11;;;;;;;12.75;6.53;;;10.30;99.90;;;;;;5098935;28;20020;-86
2022/04/26 07:06:38;;;;;;;11.55;7.00;;;10.20;99.90;;;;;;5086462;28;20031;-87
2022/04/26 07:09:04;;;;;;;11.93;7.65;;;10.10;99.90;;;;;;5093510;28;20051;-86
2022/04/26 07:11:30;;;;;;;9.77;5.95;;;10.00;99.90;;;;;;5111271;28;20058;-84
2022/04/26 07:13:57;;;;;;;15.25;7.55;;;9.90;99.90;;;;;;5079186;28;20019;-85
2022/04/26 07:16:23;;;;;;;15.32;7.45;;;9.90;99.90;;;;;;5101328;28;20024;-85
2022/04/26 07:18:49;;;;;;;12.60;7.50;;;9.80;99.90;;;;;;5103947;28;20095;-85
2022/04/26 07:21:14;;;;;;;12.05;7.03;;;9.80;99.90;;;;;;5090209;28;20066;-85
2022/04/26 07:23:40;;;;;;;10.23;6.32;;;9.90;99.90;;;;;;5091822;28;20012;-86
2022/04/26 07:26:05;;;;;;;11.15;5.82;;;9.90;99.90;;;;;;5115922;28;20122;-85
2022/04/26 07:28:32;;;;;;;11.30;6.32;;;9.90;99.90;;;;;;5117469;28;20020;-84
2022/04/26 07:30:58;;;;;;;11.93;6.65;;;9.90;99.90;;;;;;5086603;28;20032;-85
2022/04/26 07:36:09;;;;;;;10.90;7.10;;;9.90;99.90;;;;;;5102692;28;20503;-85
2022/04/26 07:38:36;;;;;;;11.50;6.78;;;9.80;99.90;;;;;;5110978;28;20026;-85
2022/04/26 07:41:02;;;;;;;11.15;6.97;;;9.80;99.90;;;;;;5099580;28;20016;-85
2022/04/26 07:43:27;;;;;;;14.13;7.13;;;9.80;99.90;;;;;;5099109;28;20035;-85
2022/04/26 07:45:53;;;;;;;10.27;5.60;;;9.80;99.90;;;;;;5081385;28;20107;-84
2022/04/26 07:48:20;;;;;;;12.75;6.85;;;9.80;99.90;;;;;;5110156;28;20458;-85
2022/04/26 07:50:47;;;;;;;10.13;5.50;;;9.80;99.90;;;;;;5089053;28;20028;-84
2022/04/26 07:53:13;;;;;;;10.88;5.30;;;9.90;99.90;;;;;;5084026;28;20025;-86
2022/04/26 07:55:39;;;;;;;9.77;6.20;;;9.90;99.90;;;;;;5099908;28;20027;-85
2022/04/26 07:58:05;;;;;;;8.85;5.80;;;10.00;99.90;;;;;;5082954;28;20015;-85
2022/04/26 08:00:30;;;;;;;7.88;4.90;;;10.00;99.90;;;;;;5098338;28;20456;-85
2022/04/26 08:02:56;;;;;;;9.45;5.13;;;10.00;99.90;;;;;;5104319;28;20020;-85
2022/04/26 08:05:22;;;;;;;7.85;5.05;;;10.10;99.90;;;;;;5078599;28;20492;-85
2022/04/26 08:07:49;;;;;;;7.75;5.20;;;10.10;99.90;;;;;;5093737;28;20055;-86
2022/04/26 08:10:15;;;;;;;7.22;4.35;;;10.20;99.90;;;;;;5096312;28;20619;-86
2022/04/26 08:12:43;;;;;;;6.78;4.32;;;10.20;99.90;;;;;;5096670;28;20031;-86
2022/04/26 08:15:14;;;;;;;7.47;4.38;;;10.20;99.90;;;;;;5077935;28;20024;-85
2022/04/26 08:17:40;;;;;;;8.35;4.95;;;10.20;99.90;;;;;;5093551;28;20023;-85
2022/04/26 08:20:10;;;;;;;8.82;5.20;;;10.20;99.90;;;;;;5082749;28;20469;-86
2022/04/26 08:22:35;;;;;;;8.18;4.03;;;10.30;99.90;;;;;;5088798;28;20019;-86
2022/04/26 08:27:48;;;;;;;7.68;4.90;;;10.50;99.90;;;;;;5098466;28;20043;-85
2022/04/26 08:30:14;;;;;;;8.60;4.63;;;10.50;99.90;;;;;;5115828;28;20473;-85
2022/04/26 08:32:42;;;;;;;5.75;4.38;;;10.70;99.90;;;;;;5097679;28;20038;-86
2022/04/26 08:35:10;;;;;;;11.77;4.20;;;10.80;99.90;;;;;;5083692;28;20490;-84
2022/04/26 08:37:37;;;;;;;9.63;5.07;;;11.00;99.90;;;;;;5094502;28;20016;-86
2022/04/26 08:40:05;;;;;;;7.60;4.22;;;11.10;99.90;;;;;;5111950;28;20024;-86
2022/04/26 08:42:35;;;;;;;6.53;3.75;;;11.30;99.90;;;;;;5085591;28;20024;-85
2022/04/26 08:45:06;;;;;;;8.00;4.03;;;11.50;99.90;;;;;;5102811;28;20028;-86
2022/04/26 08:53:04;;;;;;;5.47;2.75;;;11.90;99.90;;;;;;5113105;28;20031;-85
2022/04/26 08:55:33;;;;;;;8.25;3.50;;;12.00;99.90;;;;;;5096758;28;20104;-85
2022/04/26 08:57:59;;;;;;;6.40;2.70;;;12.20;99.90;;;;;;5078006;28;20016;-85
2022/04/26 09:00:25;;;;;;;6.07;3.70;;;12.30;99.90;;;;;;5103000;28;20484;-86
2022/04/26 09:03:02;;;;;;;6.35;2.97;;;12.30;99.90;;;;;;5087323;28;20074;-86
2022/04/26 09:05:28;;;;;;;4.90;3.13;;;12.30;99.90;;;;;;5095124;28;20032;-84
2022/04/26 09:07:54;;;;;;;5.95;2.67;;;12.40;99.90;;;;;;5093539;28;20389;-85
2022/04/26 09:10:20;;;;;;;7.88;3.45;;;12.50;99.90;;;;;;5082670;28;20052;-84
2022/04/26 09:13:07;;;;;;;7.38;2.97;;;12.70;99.90;;;;;;5086358;28;20381;-84
2022/04/26 09:15:41;;;;;;;8.18;3.25;;;12.80;99.90;;;;;;5076409;28;20024;-84
2022/04/26 09:18:24;;;;;;;6.38;3.45;;;13.00;99.90;;;;;;5081508;28;20119;-85
2022/04/26 09:20:54;;;;;;;5.78;3.20;;;13.00;99.90;;;;;;5103054;28;20020;-84
2022/04/26 09:23:22;;;;;;;7.18;3.10;;;13.20;99.90;;;;;;5090844;28;20020;-84
2022/04/26 09:25:52;;;;;;;5.45;2.92;;;13.30;99.90;;;;;;5079140;28;20028;-85
2022/04/26 09:28:25;;;;;;;5.63;3.10;;;13.50;99.90;;;;;;5114013;28;20035;-85
2022/04/26 09:30:52;;;;;;;7.07;2.90;;;13.70;99.90;;;;;;5085188;28;20036;-86
2022/04/26 09:33:38;;;;;;;5.57;3.42;;;13.80;99.90;;;;;;5090210;28;20031;-84
2022/04/26 09:36:09;;;;;;;4.65;3.10;;;14.10;99.90;;;;;;5081166;28;20023;-86
2022/04/26 09:38:36;;;;;;;4.70;2.85;;;15.00;99.90;;;;;;5087564;28;20066;-86
2022/04/26 09:41:08;;;;;;;5.05;2.72;;;16.10;99.90;;;;;;5087172;28;20023;-83
2022/04/26 09:43:37;;;;;;;4.15;2.17;;;17.00;99.90;;;;;;5075383;28;20055;-85
2022/04/26 09:46:07;;;;;;;4.88;2.70;;;17.90;99.90;;;;;;5088135;28;20020;-84
2022/04/26 09:48:38;;;;;;;5.90;2.47;;;18.50;98.90;;;;;;5072153;28;20034;-83
2022/04/26 09:51:05;;;;;;;4.18;2.55;;;19.00;98.00;;;;;;5085879;28;20043;-85
2022/04/26 09:53:32;;;;;;;5.22;2.80;;;19.30;96.50;;;;;;5074082;28;20028;-84
2022/04/26 09:56:00;;;;;;;4.28;2.03;;;19.50;95.20;;;;;;5092292;28;20147;-84
2022/04/26 09:58:27;;;;;;;3.38;1.70;;;19.80;95.50;;;;;;5084326;28;20016;-85
2022/04/26 10:00:54;;;;;;;6.57;1.73;;;20.30;94.80;;;;;;5083577;28;20043;-84
2022/04/26 10:03:31;;;;;;;4.47;2.10;;;20.70;94.40;;;;;;5089626;28;20493;-84
2022/04/26 10:06:02;;;;;;;4.72;2.10;;;21.00;93.20;;;;;;5092775;28;20473;-85
2022/04/26 10:08:36;;;;;;;3.85;2.00;;;21.00;92.70;;;;;;5092131;28;20034;-85
2022/04/26 10:11:03;;;;;;;4.25;2.00;;;21.30;92.70;;;;;;5084156;28;20032;-85
2022/04/26 10:13:32;;;;;;;4.10;1.85;;;21.60;92.80;;;;;;5076216;28;20561;-84
2022/04/26 10:16:00;;;;;;;4.10;2.13;;;21.80;91.70;;;;;;5093378;28;20034;-85
2022/04/26 10:18:31;;;;;;;4.28;2.28;;;21.90;91.10;;;;;;5080945;28;20025;-86
2022/04/26 10:20:57;;;;;;;3.80;1.95;;;22.10;90.20;;;;;;5083919;28;20385;-85
2022/04/26 10:23:23;;;;;;;4.88;2.28;;;22.10;89.90;;;;;;5075864;28;20571;-86
2022/04/26 10:26:21;;;;;;;5.72;2.17;;;22.10;88.90;;;;;;5108482;28;20109;-84
2022/04/26 10:28:57;;;;;;;4.70;2.10;;;22.10;88.50;;;;;;5080909;28;20470;-86
2022/04/26 10:31:55;;;;;;;3.47;2.00;;;22.00;88.30;;;;;;5083068;28;20055;-86
2022/04/26 10:34:23;;;;;;;3.70;1.83;;;22.00;88.40;;;;;;5058352;28;20051;-86
2022/04/26 10:36:59;;;;;;;4.43;2.08;;;22.40;88.70;;;;;;5094247;28;20487;-86
2022/04/26 10:39:25;;;;;;;4.68;2.17;;;23.20;86.60;;;;;;5079023;28;20177;-85
2022/04/26 10:41:52;;;;;;;4.07;1.88;;;23.50;83.80;;;;;;5091017;28;20107;-85
2022/04/26 10:44:26;;;;;;;6.05;2.03;;;23.20;83.50;;;;;;5099361;28;20024;-85
2022/04/26 10:47:01;;;;;;;3.85;2.03;;;22.70;84.50;;;;;;5095026;28;20027;-84
2022/04/26 10:49:32;;;;;;;3.53;1.65;;;22.10;84.30;;;;;;5078078;28;20078;-85
2022/04/26 10:52:13;;;;;;;4.00;2.08;;;21.50;83.80;;;;;;5078652;28;20019;-85
2022/04/26 10:57:18;;;;;;;4.90;2.30;;;20.70;85.80;;;;;;5113495;28;20028;-85
2022/04/26 10:59:56;;;;;;;2.92;2.00;;;21.00;84.40;;;;;;5077858;28;20020;-84
2022/04/26 11:02:23;;;;;;;2.92;1.73;;;21.00;84.10;;;;;;5087762;28;20024;-84
2022/04/26 11:04:59;;;;;;;5.03;2.00;;;20.70;83.50;;;;;;5085816;28;20027;-85
2022/04/26 11:07:27;;;;;;;3.58;1.73;;;20.30;84.20;;;;;;5095109;28;20042;-84
2022/04/26 11:09:54;;;;;;;3.75;1.80;;;20.00;85.20;;;;;;5077852;28;20054;-85
2022/04/26 11:12:27;;;;;;;4.47;2.08;;;19.70;84.00;;;;;;5071026;28;20052;-84
2022/04/26 11:14:59;;;;;;;3.22;1.90;;;19.40;83.90;;;;;;5074818;28;20448;-84
2022/04/26 11:17:25;;;;;;;5.38;2.28;;;19.40;84.20;;;;;;5091025;28;20722;-85
2022/04/26 11:19:59;;;;;;;3.65;1.80;;;20.20;83.60;;;;;;5095548;28;20036;-84
2022/04/26 11:22:26;;;;;;;4.50;2.20;;;21.10;82.60;;;;;;5087588;28;20028;-84
2022/04/26 11:30:54;;;;;;;4.05;2.20;;;22.20;80.00;;;;;;5088393;28;20119;-85
2022/04/26 11:33:25;;;;;;;4.53;2.05;;;22.40;79.20;;;;;;5108320;28;20019;-85
2022/04/26 11:35:52;;;;;;;4.57;1.95;;;22.90;79.70;;;;;;5095925;28;20027;-84
2022/04/26 11:38:18;;;;;;;2.95;1.80;;;23.20;78.80;;;;;;5088226;28;20039;-84
2022/04/26 11:40:51;;;;;;;5.53;2.67;;;23.60;79.00;;;;;;5084323;28;20115;-85
2022/04/26 11:43:31;;;;;;;4.75;2.78;;;23.40;76.40;;;;;;5079484;28;20038;-85
2022/04/26 11:45:58;;;;;;;3.40;1.90;;;23.00;76.00;;;;;;5096211;28;20105;-84
2022/04/26 11:48:33;;;;;;;4.85;2.47;;;22.80;78.70;;;;;;5105508;28;20024;-87
2022/04/26 11:51:00;;;;;;;4.25;2.17;;;23.50;77.80;;;;;;5086545;28;20199;-84
2022/04/26 11:53:28;;;;;;;4.75;2.63;;;24.00;77.40;;;;;;5095443;28;20083;-84
2022/04/26 11:55:57;;;;;;;5.57;2.60;;;24.20;75.10;;;;;;5093940;28;20016;-85
2022/04/26 11:58:32;;;;;;;4.10;2.50;;;24.30;74.50;;;;;;5105366;28;20046;-84
2022/04/26 12:01:04;;;;;;;4.15;2.10;;;24.40;74.60;;;;;;5085107;28;20092;-84
2022/04/26 12:03:57;;;;;;;3.72;2.00;;;24.60;74.30;;;;;;5076507;28;20028;-85
2022/04/26 12:06:29;;;;;;;4.87;2.20;;;25.10;74.40;;;;;;5091665;28;20102;-84
2022/04/26 12:09:00;;;;;;;4.97;1.95;;;25.30;74.10;;;;;;5085318;28;20142;-85
2022/04/26 12:11:28;;;;;;;3.55;1.77;;;25.40;73.20;;;;;;5077812;28;20027;-86
2022/04/26 12:14:01;;;;;;;4.03;2.10;;;25.10;71.80;;;;;;5093614;28;20020;-85
2022/04/26 12:16:28;;;;;;;3.33;1.70;;;24.20;72.90;;;;;;5085570;28;20104;-85
2022/04/26 12:19:02;;;;;;;3.25;1.58;;;23.80;73.50;;;;;;5085811;28;20115;-84
2022/04/26 12:21:28;;;;;;;4.85;1.92;;;23.30;73.50;;;;;;5111928;28;20032;-84
2022/04/26 12:24:11;;;;;;;3.38;1.75;;;23.00;74.10;;;;;;5079818;28;20042;-84
2022/04/26 12:26:47;;;;;;;;;;;23.70;73.50;;;;;;5097733;28;20028;-83
2022/04/26 12:29:13;;;;;;;4.47;2.10;;;23.40;71.90;;;;;;5082865;28;19904;-84
2022/04/26 12:31:44;;;;;;;3.67;2.13;;;23.30;72.40;;;;;;5093642;28;20446;-84
2022/04/26 12:34:18;;;;;;;3.42;2.10;;;22.80;72.70;;;;;;5082006;28;20015;-84
2022/04/26 12:36:54;;;;;;;4.90;2.20;;;22.10;73.50;;;;;;5086994;28;20107;-84
2022/04/26 12:39:22;;;;;;;3.63;2.13;;;21.50;75.00;;;;;;5092012;28;20039;-84
2022/04/26 12:41:56;;;;;;;3.55;1.80;;;21.30;75.90;;;;;;5080834;28;20120;-84
2022/04/26 12:44:23;;;;;;;2.90;1.73;;;21.20;76.20;;;;;;5108840;28;20024;-85
2022/04/26 12:52:42;;;;;;;2.88;1.48;;;22.70;75.40;;;;;;5105265;28;20119;-85
2022/04/26 12:55:08;;;;;;;3.38;1.88;;;22.90;74.10;;;;;;5089103;28;20047;-84
2022/04/26 12:57:50;;;;;;;4.93;2.00;;;23.00;74.10;;;;;;5095771;28;20058;-85
2022/04/26 13:00:19;;;;;;;4.78;1.70;;;23.80;73.50;;;;;;5082731;28;20032;-85
2022/04/26 13:02:49;;;;;;;2.80;1.85;;;23.80;72.40;;;;;;5104751;28;20509;-85
2022/04/26 13:05:15;;;;;;;3.33;1.95;;;23.10;71.70;;;;;;5090819;28;20598;-84
2022/04/26 13:07:41;;;;;;;4.15;1.80;;;22.10;72.80;;;;;;5078937;28;20024;-84
2022/04/26 13:10:07;;;;;;;2.72;1.60;;;22.00;74.00;;;;;;5109527;28;20143;-84
2022/04/26 13:12:36;;;;;;;5.68;1.85;;;22.60;73.50;;;;;;5085113;28;20110;-83
2022/04/26 13:15:02;;;;;;;2.97;1.65;;;22.90;72.70;;;;;;5080594;28;20057;-83
2022/04/26 13:17:27;;;;;;;3.65;1.88;;;23.40;72.80;;;;;;5091936;28;20031;-81
2022/04/26 13:19:54;;;;;;;3.55;1.80;;;23.90;70.90;;;;;;5094495;28;20035;-83
2022/04/26 13:22:21;;;;;;;3.72;1.30;;;23.90;70.40;;;;;;5104954;28;20031;-82
2022/04/26 13:24:47;;;;;;;6.63;1.95;;;23.00;70.90;;;;;;5082420;28;20051;-82
2022/04/26 13:27:12;;;;;;;2.55;1.40;;;22.30;72.00;;;;;;5086301;28;20048;-82
2022/04/26 13:29:38;;;;;;;3.88;1.63;;;22.80;72.30;;;;;;5078197;28;20039;-83
2022/04/26 13:32:05;;;;;;;4.03;1.55;;;23.30;71.20;;;;;;5091700;28;20069;-82
2022/04/26 13:34:31;;;;;;;3.45;1.70;;;22.80;70.70;;;;;;5098899;28;20099;-84
2022/04/26 13:36:57;;;;;;;2.58;1.70;;;22.90;71.20;;;;;;5102785;28;20051;-84
2022/04/26 13:39:23;;;;;;;2.30;1.60;;;23.40;70.60;;;;;;5091454;28;20078;-83
2022/04/26 13:41:50;;;;;;;2.13;1.27;;;24.10;70.70;;;;;;5078833;28;20027;-82
2022/04/26 13:44:19;;;;;;;1.75;1.40;;;24.70;70.10;;;;;;5097266;28;20015;-84
2022/04/26 13:46:45;;;;;;;4.30;1.52;;;24.80;68.20;;;;;;5085509;28;20085;-84
2022/04/26 13:49:11;;;;;;;3.60;1.80;;;24.30;68.70;;;;;;5088037;28;20027;-84
2022/04/26 13:51:36;;;;;;;3.15;1.60;;;24.10;69.30;;;;;;5078837;28;20016;-85
2022/04/26 13:54:02;;;;;;;3.10;1.55;;;24.40;69.20;;;;;;5094109;28;20012;-84
2022/04/26 13:56:28;;;;;;;2.42;1.48;;;24.70;67.70;;;;;;5095590;28;20023;-84
2022/04/26 13:58:54;;;;;;;2.35;1.38;;;25.10;68.20;;;;;;5084498;28;20474;-85
2022/04/26 14:01:19;;;;;;;2.50;1.70;;;25.00;66.60;;;;;;5089840;28;20031;-84
2022/04/26 14:03:45;;;;;;;2.72;1.50;;;24.00;66.50;;;;;;5077095;28;20454;-84
2022/04/26 14:06:11;;;;;;;3.97;1.77;;;23.20;67.20;;;;;;5081123;28;20027;-85
2022/04/26 14:08:37;;;;;;;2.08;1.30;;;23.10;68.80;;;;;;5085938;28;20108;-85
2022/04/26 14:11:06;;;;;;;2.10;1.35;;;23.40;68.50;;;;;;5101095;28;20119;-84
2022/04/26 14:21:46;;;;;;;1.40;1.25;;;23.70;68.40;;;;;;5096636;28;20028;-83
2022/04/26 14:21:48;;;;;;;2.70;1.73;;;24.30;67.40;;;;;;5096460;28;20039;-84
2022/04/26 14:24:14;;;;;;;2.05;1.27;;;24.30;66.80;;;;;;5110760;28;20107;-85
2022/04/26 14:26:42;;;;;;;3.70;1.63;;;24.40;67.90;;;;;;5095881;28;20473;-84
2022/04/26 14:29:08;;;;;;;2.83;1.75;;;24.60;67.70;;;;;;5095845;28;20020;-87
2022/04/26 14:31:37;;;;;;;2.85;1.60;;;24.40;67.90;;;;;;5095703;28;20030;-85
2022/04/26 14:34:06;;;;;;;2.45;1.67;;;24.40;67.80;;;;;;5090944;28;20061;-85
2022/04/26 14:36:31;;;;;;;3.13;1.70;;;24.20;68.00;;;;;;5083002;28;20028;-86
2022/04/26 14:38:57;;;;;;;3.08;1.42;;;24.10;67.70;;;;;;5095557;28;20034;-86
2022/04/26 14:41:22;;;;;;;3.15;1.70;;;24.20;67.20;;;;;;5095657;28;20046;-86
2022/04/26 14:43:48;;;;;;;2.35;1.38;;;24.10;67.90;;;;;;5078378;28;20047;-86
2022/04/26 14:46:14;;;;;;;4.95;1.73;;;24.00;68.70;;;;;;5114117;28;20049;-85
2022/04/26 14:48:39;;;;;;;4.70;1.73;;;23.90;67.70;;;;;;5095706;28;20015;-85
2022/04/26 14:51:05;;;;;;;3.60;1.50;;;24.00;68.70;;;;;;5082146;28;20020;-85
2022/04/26 14:53:31;;;;;;;3.50;1.70;;;24.10;69.90;;;;;;5106759;28;20041;-86
2022/04/26 14:55:59;;;;;;;2.97;1.83;;;24.20;67.80;;;;;;5109576;28;20019;-85
2022/04/26 14:58:26;;;;;;;3.85;1.50;;;23.90;67.80;;;;;;5082608;28;20034;-86
2022/04/26 15:00:52;;;;;;;3.05;1.40;;;23.80;67.50;;;;;;5083701;28;20050;-86
2022/04/26 15:03:17;;;;;;;3.03;1.70;;;23.60;68.80;;;;;;5089338;28;20019;-84
2022/04/26 15:05:43;;;;;;;4.25;1.77;;;23.40;69.00;;;;;;5110927;28;20030;-85
2022/04/26 15:10:53;;;;;;;5.03;1.73;;;22.60;69.20;;;;;;5101952;28;20054;-86
2022/04/26 15:18:47;;;;;;;2.63;1.38;;;20.70;73.80;;;;;;5113424;28;20123;-86
2022/04/26 15:21:13;;;;;;;3.53;1.73;;;20.60;73.80;;;;;;5098703;28;20496;-85
2022/04/26 15:23:39;;;;;;;3.42;1.70;;;20.20;74.50;;;;;;5089887;28;20381;-86
2022/04/26 15:26:06;;;;;;;3.20;1.70;;;20.10;75.60;;;;;;5094013;28;20022;-85
2022/04/26 15:28:34;;;;;;;2.88;1.48;;;20.00;75.10;;;;;;5113392;28;20415;-84
2022/04/26 15:31:01;;;;;;;3.20;1.45;;;20.10;75.50;;;;;;5081965;28;20032;-85
2022/04/26 15:33:26;;;;;;;2.38;1.27;;;20.10;75.50;;;;;;5090227;28;20374;-86
2022/04/26 15:35:52;;;;;;;2.60;1.42;;;20.30;75.50;;;;;;5077511;28;20026;-86
2022/04/26 15:38:18;;;;;;;2.55;1.33;;;20.30;75.20;;;;;;5087649;28;20027;-86
2022/04/26 15:40:46;;;;;;;4.18;1.63;;;20.10;76.00;;;;;;5084554;28;20135;-86
2022/04/26 15:43:13;;;;;;;3.55;1.52;;;20.10;76.70;;;;;;5091285;28;20046;-88
2022/04/26 15:45:39;;;;;;;2.75;1.50;;;20.20;76.90;;;;;;5092560;28;20043;-84
2022/04/26 15:48:05;;;;;;;3.45;2.00;;;20.20;76.10;;;;;;5094065;28;20519;-86
2022/04/26 15:50:32;;;;;;;4.55;1.60;;;20.00;76.50;;;;;;5094348;28;20020;-84
2022/04/26 15:52:57;;;;;;;2.80;1.40;;;19.80;77.00;;;;;;5095641;28;20496;-85
2022/04/26 15:55:23;;;;;;;1.73;1.30;;;19.60;77.00;;;;;;5095194;28;20024;-84
2022/04/26 15:57:54;;;;;;;2.50;1.60;;;19.20;78.00;;;;;;5095477;28;20028;-87
2022/04/26 16:00:20;;;;;;;4.00;1.80;;;19.00;78.00;;;;;;5096484;28;20045;-87
2022/04/26 16:02:51;;;;;;;2.58;1.73;;;18.90;78.90;;;;;;5097428;28;20071;-84
2022/04/26 16:05:17;;;;;;;3.35;1.90;;;18.70;78.10;;;;;;5086513;28;20107;-85
2022/04/26 16:07:43;;;;;;;3.53;1.50;;;18.50;79.40;;;;;;5076789;28;20096;-85
2022/04/26 16:21:06;;;;;;;2.05;1.30;;;18.10;80.00;;;;;;5095447;28;20046;-88
2022/04/26 16:23:32;;;;;;;2.72;1.48;;;17.90;80.80;;;;;;5077089;28;20111;-86
2022/04/26 16:26:05;;;;;;;2.38;1.65;;;17.80;81.10;;;;;;5075222;28;20024;-85
2022/04/26 16:28:33;;;;;;;2.50;1.40;;;17.60;79.70;;;;;;5076077;28;20020;-84
2022/04/26 16:31:00;;;;;;;2.80;1.50;;;17.30;80.60;;;;;;5076554;28;20469;-85
2022/04/26 16:33:25;;;;;;;4.25;1.70;;;17.00;80.50;;;;;;5089809;28;20035;-85
2022/04/26 16:35:53;;;;;;;3.50;1.85;;;16.80;80.40;;;;;;5116171;28;20434;-84
2022/04/26 16:38:20;;;;;;;3.67;1.70;;;16.50;78.80;;;;;;5115399;28;20028;-86
2022/04/26 16:40:47;;;;;;;2.38;1.50;;;16.40;79.90;;;;;;5119075;28;20038;-86
2022/04/26 16:43:16;;;;;;;2.67;1.60;;;16.40;80.10;;;;;;5100337;28;20452;-88
2022/04/26 16:45:48;;;;;;;2.72;1.52;;;16.30;80.90;;;;;;5095207;28;20027;-85
2022/04/26 16:48:14;;;;;;;5.65;1.65;;;16.20;79.90;;;;;;5079277;28;20024;-84
2022/04/26 16:50:40;;;;;;;3.25;2.10;;;16.00;79.80;;;;;;5102263;28;20016;-86
2022/04/26 16:53:08;;;;;;;3.20;1.67;;;15.90;80.30;;;;;;5086064;28;20028;-86
2022/04/26 16:55:37;;;;;;;3.47;1.65;;;15.90;80.40;;;;;;5086367;28;20016;-85
2022/04/26 16:58:03;;;;;;;3.55;1.52;;;15.80;80.30;;;;;;5088104;28;20020;-88
2022/04/26 17:00:29;;;;;;;5.53;1.75;;;15.70;80.10;;;;;;5088578;28;20032;-85
2022/04/26 17:02:56;;;;;;;3.28;1.42;;;15.70;79.90;;;;;;5107370;28;20112;-85
2022/04/26 17:05:22;;;;;;;4.57;1.40;;;15.60;80.40;;;;;;5103625;28;20547;-85
2022/04/26 17:07:51;;;;;;;3.85;1.70;;;15.60;80.90;;;;;;5096712;28;20023;-84
2022/04/26 17:10:18;;;;;;;3.22;1.65;;;15.50;80.50;;;;;;5110643;28;20050;-81
2022/04/26 17:12:48;;;;;;;2.45;1.70;;;15.40;80.40;;;;;;5112568;28;20044;-84
2022/04/26 17:15:15;;;;;;;3.45;1.35;;;15.30;80.10;;;;;;5118568;28;20034;-85
2022/04/26 17:17:42;;;;;;;2.28;1.33;;;15.20;80.40;;;;;;5120272;28;20020;-85
2022/04/26 17:20:09;;;;;;;3.00;1.58;;;15.00;79.90;;;;;;5121588;28;20024;-87